createdAt,value
2022-10-31T00:03:55.561Z,12.20
2022-10-31T00:09:13.718Z,7.53
2022-10-31T00:14:31.386Z,8.70
2022-10-31T00:19:38.874Z,10.75
2022-10-31T00:24:50.232Z,11.32
2022-10-31T00:29:58.303Z,11.38
2022-10-31T00:35:11.345Z,10.25
2022-10-31T00:40:22.742Z,10.52
2022-10-31T00:45:38.745Z,12.80
2022-10-31T00:51:05.814Z,7.68
2022-10-31T00:56:15.525Z,10.00
2022-10-31T01:01:31.625Z,7.05
2022-10-31T01:12:10.262Z,8.57
2022-10-31T01:17:17.070Z,10.52
2022-10-31T01:22:21.970Z,11.43
2022-10-31T01:33:08.136Z,8.77
2022-10-31T01:38:17.141Z,12.40
2022-10-31T01:43:27.705Z,7.43
2022-10-31T01:48:43.293Z,7.28
2022-10-31T01:53:51.576Z,7.95
2022-10-31T01:59:15.687Z,13.05
2022-10-31T02:04:29.420Z,9.93
2022-10-31T02:09:39.648Z,11.63
2022-10-31T02:14:54.709Z,11.45
2022-10-31T02:20:14.504Z,11.73
2022-10-31T02:25:48.385Z,8.57
2022-10-31T02:31:18.874Z,10.23
2022-10-31T02:36:34.177Z,12.50
2022-10-31T02:41:54.575Z,9.52
2022-10-31T02:47:12.434Z,11.98
2022-10-31T02:52:20.572Z,10.27
2022-10-31T02:57:32.245Z,8.30
2022-10-31T03:02:56.244Z,8.85
2022-10-31T03:08:09.212Z,7.25
2022-10-31T03:13:19.672Z,9.52
2022-10-31T03:18:35.881Z,9.90
2022-10-31T03:23:47.744Z,11.43
2022-10-31T03:28:57.999Z,9.18
2022-10-31T03:34:09.762Z,8.20
2022-10-31T03:39:25.514Z,9.93
2022-10-31T03:44:33.404Z,10.88
2022-10-31T03:49:41.730Z,10.68
2022-10-31T03:54:48.516Z,10.63
2022-10-31T04:00:05.921Z,11.38
2022-10-31T04:05:12.949Z,7.47
2022-10-31T04:10:24.170Z,7.45
2022-10-31T04:15:34.876Z,9.80
2022-10-31T04:20:51.271Z,11.40
2022-10-31T04:25:58.051Z,9.77
2022-10-31T04:31:34.715Z,7.27
2022-10-31T04:36:54.425Z,10.57
2022-10-31T04:42:04.445Z,10.20
2022-10-31T04:52:45.862Z,7.77
2022-10-31T04:58:10.617Z,6.67
2022-10-31T05:03:27.079Z,8.45
2022-10-31T05:08:40.311Z,9.73
2022-10-31T05:14:03.450Z,8.68
2022-10-31T05:19:23.787Z,11.57
2022-10-31T05:24:32.928Z,10.13
2022-10-31T05:29:37.062Z,9.00
2022-10-31T05:34:43.777Z,10.20
2022-10-31T05:39:52.667Z,10.00
2022-10-31T05:44:56.615Z,8.23
2022-10-31T05:50:03.800Z,13.77
2022-10-31T05:55:18.411Z,8.40
2022-10-31T06:00:39.135Z,8.77
2022-10-31T06:05:44.080Z,8.27
2022-10-31T06:10:54.453Z,9.90
2022-10-31T06:16:03.274Z,7.80
2022-10-31T06:21:07.483Z,9.60
2022-10-31T06:26:14.038Z,10.10
2022-10-31T06:31:30.763Z,9.50
2022-10-31T06:36:39.353Z,13.97
2022-10-31T06:41:48.297Z,9.67
2022-10-31T06:46:53.447Z,12.18
2022-10-31T06:52:02.964Z,12.63
2022-10-31T06:57:15.522Z,13.77
2022-10-31T07:02:20.944Z,10.97
2022-10-31T07:07:25.692Z,12.77
2022-10-31T07:12:37.924Z,9.43
2022-10-31T07:17:45.403Z,9.90
2022-10-31T07:22:50.919Z,9.80
2022-10-31T07:27:59.525Z,11.43
2022-10-31T07:33:05.856Z,13.05
2022-10-31T07:38:14.398Z,7.18
2022-10-31T07:43:25.747Z,10.32
2022-10-31T07:48:36.147Z,8.75
2022-10-31T07:53:44.595Z,10.88
2022-10-31T07:59:07.065Z,10.55
2022-10-31T08:04:12.339Z,8.80
2022-10-31T08:09:24.891Z,8.48
2022-10-31T08:14:38.683Z,7.72
2022-10-31T08:19:43.664Z,8.98
2022-10-31T08:25:04.631Z,8.70
2022-10-31T08:30:22.081Z,9.13
2022-10-31T08:35:30.859Z,9.32
2022-10-31T08:40:41.741Z,8.38
2022-10-31T08:46:00.179Z,9.70
2022-10-31T08:51:07.650Z,13.32
2022-10-31T08:56:11.706Z,13.40
2022-10-31T09:01:25.337Z,12.70
2022-10-31T09:06:31.671Z,12.15
2022-10-31T09:11:36.117Z,8.93
2022-10-31T09:16:46.033Z,13.73
2022-10-31T09:21:52.396Z,13.70
2022-10-31T09:27:01.245Z,14.63
2022-10-31T09:32:11.962Z,14.20
2022-10-31T09:37:16.633Z,22.85
2022-10-31T09:42:40.248Z,22.95
2022-10-31T09:48:03.707Z,29.63
2022-10-31T09:53:13.978Z,35.55
2022-10-31T09:58:26.055Z,35.92
2022-10-31T10:03:38.415Z,40.35
2022-10-31T10:08:43.086Z,37.05
2022-10-31T10:14:07.947Z,35.08
2022-10-31T10:19:28.915Z,34.60
2022-10-31T10:24:54.954Z,32.35
2022-10-31T10:30:06.793Z,33.15
2022-10-31T10:35:23.287Z,31.40
2022-10-31T10:40:31.169Z,35.30
2022-10-31T10:45:53.599Z,37.78
2022-10-31T10:51:04.788Z,34.58
2022-10-31T10:56:24.747Z,36.55
2022-10-31T11:01:35.371Z,31.45
2022-10-31T11:06:57.394Z,34.58
2022-10-31T11:12:14.703Z,30.25
2022-10-31T11:17:30.601Z,34.10
2022-10-31T11:22:41.133Z,35.10
2022-10-31T11:28:04.123Z,31.98
2022-10-31T11:33:24.993Z,33.45
2022-10-31T11:38:41.452Z,32.92
2022-10-31T11:43:56.420Z,34.88
2022-10-31T11:49:10.859Z,34.85
2022-10-31T11:54:28.159Z,37.13
2022-10-31T11:59:33.767Z,34.42
2022-10-31T12:04:48.848Z,32.50
2022-10-31T12:09:55.339Z,32.92
2022-10-31T12:15:25.089Z,34.28
2022-10-31T12:20:48.940Z,32.38
2022-10-31T12:26:16.187Z,31.42
2022-10-31T12:31:44.288Z,35.65
2022-10-31T12:37:10.542Z,30.50
2022-10-31T12:42:36.547Z,30.55
2022-10-31T12:48:21.759Z,31.75
2022-10-31T12:53:44.359Z,30.00
2022-10-31T12:59:23.767Z,30.77
2022-10-31T13:04:38.959Z,34.15
2022-10-31T13:09:52.824Z,29.77
2022-10-31T13:15:08.166Z,30.67
2022-10-31T13:20:28.734Z,29.63
2022-10-31T13:31:11.664Z,29.02
2022-10-31T13:36:33.640Z,32.58
2022-10-31T13:41:49.946Z,35.35
2022-10-31T13:47:12.635Z,35.55
2022-10-31T13:52:30.418Z,33.25
2022-10-31T13:57:51.340Z,34.17
2022-10-31T14:03:05.969Z,33.45
2022-10-31T14:08:49.479Z,33.70
2022-10-31T14:14:01.142Z,22.95
2022-10-31T14:19:17.894Z,24.02
2022-10-31T14:24:40.869Z,24.70
2022-10-31T14:29:50.740Z,27.58
2022-10-31T14:35:03.549Z,30.73
2022-10-31T14:40:25.712Z,36.85
2022-10-31T14:45:45.811Z,35.92
2022-10-31T14:50:57.461Z,36.05
2022-10-31T14:56:16.343Z,38.30
2022-10-31T15:01:27.937Z,34.78
2022-10-31T15:06:51.953Z,37.72
2022-10-31T15:11:57.673Z,36.40
2022-10-31T15:17:10.913Z,37.10
2022-10-31T15:22:23.776Z,36.95
2022-10-31T15:27:44.790Z,31.75
2022-10-31T15:32:58.227Z,33.35
2022-10-31T15:38:05.536Z,35.60
2022-10-31T15:43:11.918Z,38.20
2022-10-31T15:48:22.216Z,32.67
2022-10-31T15:53:38.668Z,32.97
2022-10-31T15:58:46.820Z,38.92
2022-10-31T16:04:01.961Z,38.47
2022-10-31T16:09:29.073Z,40.85
2022-10-31T16:14:46.715Z,39.85
2022-10-31T16:19:58.901Z,46.35
2022-10-31T16:25:13.990Z,43.22
2022-10-31T16:30:47.742Z,40.38
2022-10-31T16:36:04.732Z,39.97
2022-10-31T16:41:25.056Z,39.15
2022-10-31T16:46:31.787Z,43.78
2022-10-31T16:51:46.268Z,37.05
2022-10-31T16:56:53.849Z,40.20
2022-10-31T17:02:04.816Z,42.17
2022-10-31T17:07:18.783Z,43.55
2022-10-31T17:12:35.438Z,42.20
2022-10-31T17:17:44.607Z,48.90
2022-10-31T17:22:51.014Z,45.00
2022-10-31T17:28:02.727Z,44.67
2022-10-31T17:33:07.964Z,45.13
2022-10-31T17:38:19.409Z,45.58
2022-10-31T17:43:29.601Z,39.25
2022-10-31T17:48:40.736Z,50.25
2022-10-31T17:53:45.861Z,46.22
2022-10-31T17:58:58.068Z,45.72
2022-10-31T18:04:05.927Z,45.47
2022-10-31T18:09:15.183Z,41.38
2022-10-31T18:14:23.241Z,44.58
2022-10-31T18:19:28.006Z,43.58
2022-10-31T18:24:42.620Z,41.90
2022-10-31T18:29:50.949Z,51.70
2022-10-31T18:35:01.937Z,36.67
2022-10-31T18:40:13.535Z,45.10
2022-10-31T18:45:46.577Z,44.05
2022-10-31T18:50:58.306Z,39.70
2022-10-31T18:56:10.074Z,47.13
2022-10-31T19:01:19.977Z,41.08
2022-10-31T19:06:29.207Z,47.58
2022-10-31T19:11:36.100Z,41.75
2022-10-31T19:16:43.218Z,43.05
2022-10-31T19:21:49.244Z,40.42
2022-10-31T19:27:05.966Z,45.05
2022-10-31T19:32:17.113Z,31.85
2022-10-31T19:37:33.456Z,38.72
2022-10-31T19:42:40.567Z,40.60
2022-10-31T19:47:55.707Z,32.72
2022-10-31T19:53:02.825Z,33.72
2022-10-31T19:58:16.254Z,33.47
2022-10-31T20:03:35.837Z,34.60
2022-10-31T20:08:46.119Z,31.48
2022-10-31T20:14:00.284Z,32.55
2022-10-31T20:19:09.868Z,36.22
2022-10-31T20:24:21.934Z,29.67
2022-10-31T20:29:33.774Z,33.00
2022-10-31T20:39:54.166Z,28.30
2022-10-31T20:45:05.069Z,30.48
2022-10-31T20:50:17.994Z,31.90
2022-10-31T20:55:33.953Z,31.42
2022-10-31T21:00:41.605Z,33.78
2022-10-31T21:06:02.426Z,32.15
2022-10-31T21:11:10.555Z,33.83
2022-10-31T21:16:36.817Z,29.77
2022-10-31T21:21:50.076Z,30.58
2022-10-31T21:26:55.579Z,25.60
2022-10-31T21:32:00.458Z,28.33
2022-10-31T21:37:06.764Z,24.42
2022-10-31T21:42:15.168Z,27.30
2022-10-31T21:47:31.468Z,30.10
2022-10-31T21:52:38.790Z,21.40
2022-10-31T21:57:44.031Z,24.08
2022-10-31T22:02:51.671Z,26.02
2022-10-31T22:07:58.482Z,29.00
2022-10-31T22:13:21.058Z,23.75
2022-10-31T22:18:37.863Z,23.45
2022-10-31T22:24:04.965Z,27.65
2022-10-31T22:29:17.326Z,26.30
2022-10-31T22:34:22.982Z,24.33
2022-10-31T22:39:54.999Z,26.08
2022-10-31T22:45:02.237Z,23.35
2022-10-31T22:50:13.159Z,30.95
2022-10-31T22:55:18.579Z,21.98
2022-10-31T23:00:26.900Z,25.48
2022-10-31T23:05:34.925Z,25.05
2022-10-31T23:10:44.878Z,26.55
2022-10-31T23:15:56.476Z,23.90
2022-10-31T23:21:31.022Z,26.85
2022-10-31T23:26:53.729Z,21.60
2022-10-31T23:32:16.936Z,29.25
2022-10-31T23:37:24.458Z,22.83
2022-10-31T23:42:31.265Z,25.23
2022-10-31T23:47:46.434Z,22.15
2022-10-31T23:52:52.060Z,26.15
2022-10-31T23:57:59.134Z,21.98
